createdAt,value
2017-10-14T00:02:19.027Z,13.60
2017-10-14T00:04:49.067Z,13.60
2017-10-14T00:07:18.337Z,13.50
2017-10-14T00:09:47.598Z,13.50
2017-10-14T00:12:16.894Z,13.60
2017-10-14T00:14:46.402Z,13.60
2017-10-14T00:17:15.671Z,13.60
2017-10-14T00:19:44.992Z,13.60
2017-10-14T00:22:14.250Z,13.70
2017-10-14T00:24:43.750Z,13.70
2017-10-14T00:27:13.369Z,13.80
2017-10-14T00:29:42.639Z,13.90
2017-10-14T00:32:11.932Z,14.00
2017-10-14T00:34:41.202Z,14.10
2017-10-14T00:37:10.502Z,14.10
2017-10-14T00:39:39.785Z,14.20
2017-10-14T00:42:09.092Z,14.10
2017-10-14T00:44:39.135Z,14.20
2017-10-14T00:47:08.416Z,14.20
2017-10-14T00:49:37.871Z,14.20
2017-10-14T00:52:07.105Z,14.20
2017-10-14T00:54:37.122Z,14.40
2017-10-14T00:57:06.451Z,14.30
2017-10-14T00:59:35.717Z,14.40
2017-10-14T01:02:04.979Z,14.40
2017-10-14T01:04:34.230Z,14.50
2017-10-14T01:07:03.514Z,14.40
2017-10-14T01:09:33.553Z,14.30
2017-10-14T01:12:02.809Z,14.30
2017-10-14T01:14:32.086Z,14.30
2017-10-14T01:17:01.348Z,14.30
2017-10-14T01:19:31.375Z,14.30
2017-10-14T01:22:00.651Z,14.20
2017-10-14T01:24:29.955Z,14.20
2017-10-14T01:26:59.385Z,14.20
2017-10-14T01:29:28.664Z,14.20
2017-10-14T01:31:57.943Z,14.20
2017-10-14T01:34:27.191Z,14.30
2017-10-14T01:36:56.607Z,14.30
2017-10-14T01:39:25.879Z,14.20
2017-10-14T01:41:56.169Z,14.10
2017-10-14T01:44:25.472Z,14.00
2017-10-14T01:46:54.708Z,14.10
2017-10-14T01:49:23.973Z,14.10
2017-10-14T01:51:53.267Z,14.10
2017-10-14T01:54:22.519Z,14.20
2017-10-14T01:56:51.789Z,14.20
2017-10-14T01:59:21.092Z,14.20
2017-10-14T02:01:50.322Z,14.20
2017-10-14T02:04:19.589Z,14.20
2017-10-14T02:06:49.606Z,14.20
2017-10-14T02:09:18.879Z,14.20
2017-10-14T02:11:48.126Z,14.10
2017-10-14T02:14:17.410Z,14.10
2017-10-14T02:16:46.691Z,14.00
2017-10-14T02:19:16.075Z,14.00
2017-10-14T02:21:45.547Z,13.90
2017-10-14T02:24:14.929Z,13.90
2017-10-14T02:26:44.273Z,13.80
2017-10-14T02:29:13.514Z,13.70
2017-10-14T02:31:42.790Z,13.60
2017-10-14T02:34:12.043Z,13.50
2017-10-14T02:36:41.344Z,13.40
2017-10-14T02:39:10.755Z,13.30
2017-10-14T02:41:40.786Z,13.10
2017-10-14T02:44:10.061Z,13.10
2017-10-14T02:46:39.311Z,13.00
2017-10-14T02:49:08.582Z,13.00
2017-10-14T02:51:38.680Z,12.80
2017-10-14T02:54:07.999Z,12.80
2017-10-14T02:56:38.064Z,12.70
2017-10-14T02:59:07.315Z,12.70
2017-10-14T03:01:36.599Z,12.60
2017-10-14T03:04:05.852Z,12.50
2017-10-14T03:06:35.128Z,12.50
2017-10-14T03:09:04.387Z,12.40
2017-10-14T03:11:33.686Z,12.40
2017-10-14T03:14:02.993Z,12.30
2017-10-14T03:16:32.273Z,12.30
2017-10-14T03:19:01.564Z,12.30
2017-10-14T03:21:30.915Z,12.30
2017-10-14T03:24:01.211Z,12.10
2017-10-14T03:26:30.474Z,12.10
2017-10-14T03:28:59.742Z,12.10
2017-10-14T03:31:29.034Z,12.00
2017-10-14T03:33:58.271Z,12.00
2017-10-14T03:36:27.762Z,11.90
2017-10-14T03:38:57.783Z,11.90
2017-10-14T03:41:27.058Z,11.90
2017-10-14T03:43:56.381Z,11.90
2017-10-14T03:46:25.638Z,11.80
2017-10-14T03:48:54.947Z,11.70
2017-10-14T03:51:24.375Z,11.70
2017-10-14T03:53:53.646Z,11.70
2017-10-14T03:56:22.982Z,11.70
2017-10-14T03:58:53.034Z,11.70
2017-10-14T04:01:22.295Z,11.60
2017-10-14T04:03:51.717Z,11.60
2017-10-14T04:06:21.956Z,11.60
2017-10-14T04:08:51.255Z,11.60
2017-10-14T04:11:20.660Z,11.60
2017-10-14T04:13:49.963Z,11.60
2017-10-14T04:16:19.326Z,11.60
2017-10-14T04:18:48.951Z,11.50
2017-10-14T04:21:18.999Z,11.50
2017-10-14T04:23:48.261Z,11.50
2017-10-14T04:26:17.544Z,11.50
2017-10-14T04:28:46.826Z,11.40
2017-10-14T04:31:16.962Z,11.40
2017-10-14T04:33:46.226Z,11.40
2017-10-14T04:36:15.510Z,11.40
2017-10-14T04:38:45.710Z,11.30
2017-10-14T04:41:15.755Z,11.40
2017-10-14T04:43:45.886Z,11.30
2017-10-14T04:46:15.167Z,11.30
2017-10-14T04:48:45.202Z,11.40
2017-10-14T04:51:14.491Z,11.30
2017-10-14T04:53:44.081Z,11.40
2017-10-14T04:56:14.120Z,11.40
2017-10-14T04:58:43.425Z,11.40
2017-10-14T05:01:14.163Z,11.50
2017-10-14T05:03:44.665Z,11.50
2017-10-14T05:06:13.978Z,11.50
2017-10-14T05:08:43.218Z,11.50
2017-10-14T05:11:12.498Z,11.60
2017-10-14T05:13:41.767Z,11.70
2017-10-14T05:16:11.079Z,11.70
2017-10-14T05:18:41.125Z,11.80
2017-10-14T05:21:10.402Z,11.80
2017-10-14T05:23:39.652Z,11.90
2017-10-14T05:26:08.930Z,11.90
2017-10-14T05:28:38.187Z,12.00
2017-10-14T05:31:07.462Z,11.90
2017-10-14T05:33:36.740Z,12.00
2017-10-14T05:36:06.015Z,12.10
2017-10-14T05:38:35.422Z,12.00
2017-10-14T05:41:04.683Z,12.00
2017-10-14T05:43:34.219Z,12.00
2017-10-14T05:46:04.238Z,12.00
2017-10-14T05:48:33.639Z,12.00
2017-10-14T05:51:03.142Z,12.00
2017-10-14T05:53:33.172Z,12.10
2017-10-14T05:56:02.442Z,12.10
2017-10-14T05:58:31.696Z,12.10
2017-10-14T06:01:00.963Z,12.10
2017-10-14T06:03:31.092Z,12.20
2017-10-14T06:06:01.206Z,12.20
2017-10-14T06:08:31.222Z,12.20
2017-10-14T06:11:00.511Z,12.20
2017-10-14T06:13:30.531Z,12.30
2017-10-14T06:16:00.561Z,12.40
2017-10-14T06:18:29.877Z,12.40
2017-10-14T06:20:59.257Z,12.60
2017-10-14T06:23:29.347Z,12.60
2017-10-14T06:25:58.613Z,12.60
2017-10-14T06:28:27.998Z,12.80
2017-10-14T06:30:58.066Z,12.90
2017-10-14T06:33:27.507Z,12.90
2017-10-14T06:35:56.783Z,12.90
2017-10-14T06:38:27.567Z,12.90
2017-10-14T06:40:56.826Z,12.90
2017-10-14T06:43:26.246Z,13.00
2017-10-14T06:45:56.378Z,13.00
2017-10-14T06:48:25.702Z,12.90
2017-10-14T06:50:54.942Z,12.90
2017-10-14T06:53:24.972Z,13.00
2017-10-14T06:55:54.218Z,13.10
2017-10-14T06:58:23.713Z,13.20
2017-10-14T07:00:53.755Z,13.30
2017-10-14T07:03:22.999Z,13.30
2017-10-14T07:05:53.775Z,13.80
2017-10-14T07:08:23.657Z,13.80
2017-10-14T07:10:52.910Z,14.50
2017-10-14T07:13:22.216Z,15.60
2017-10-14T07:15:51.475Z,16.70
2017-10-14T07:18:20.875Z,17.70
2017-10-14T07:20:50.154Z,18.90
2017-10-14T07:23:19.432Z,20.00
2017-10-14T07:25:48.878Z,21.00
2017-10-14T07:28:18.139Z,21.90
2017-10-14T07:30:47.405Z,22.20
2017-10-14T07:33:16.725Z,21.70
2017-10-14T07:35:46.035Z,21.10
2017-10-14T07:38:15.415Z,20.30
2017-10-14T07:40:45.486Z,20.10
2017-10-14T07:43:14.747Z,20.00
2017-10-14T07:45:44.225Z,21.50
2017-10-14T07:48:13.526Z,23.40
2017-10-14T07:50:43.542Z,25.60
2017-10-14T07:53:13.583Z,27.10
2017-10-14T07:55:42.863Z,27.00
2017-10-14T07:58:12.119Z,28.50
2017-10-14T08:00:41.393Z,30.10
2017-10-14T08:03:11.379Z,30.80
2017-10-14T08:05:40.626Z,31.40
2017-10-14T08:08:09.902Z,31.70
2017-10-14T08:10:39.169Z,31.70
2017-10-14T08:13:08.442Z,31.70
2017-10-14T08:15:38.332Z,32.20
2017-10-14T08:18:07.619Z,33.00
2017-10-14T08:20:36.871Z,33.80
2017-10-14T08:23:06.163Z,34.70
2017-10-14T08:25:35.610Z,34.70
2017-10-14T08:28:05.642Z,34.00
2017-10-14T08:30:34.886Z,34.10
2017-10-14T08:33:04.199Z,34.10
2017-10-14T08:35:33.455Z,34.70
2017-10-14T08:38:02.761Z,34.20
2017-10-14T08:40:32.015Z,34.50
2017-10-14T08:43:02.696Z,35.60
2017-10-14T08:45:31.960Z,35.60
2017-10-14T08:48:01.363Z,35.80
2017-10-14T08:50:31.439Z,34.70
2017-10-14T08:53:00.686Z,34.70
2017-10-14T08:55:29.970Z,34.40
2017-10-14T08:57:59.251Z,34.60
2017-10-14T09:00:28.710Z,34.50
2017-10-14T09:02:58.200Z,34.50
2017-10-14T09:05:27.622Z,34.50
2017-10-14T09:07:56.896Z,34.80
2017-10-14T09:10:26.201Z,34.80
2017-10-14T09:12:55.455Z,34.80
2017-10-14T09:15:24.872Z,34.70
2017-10-14T09:17:54.159Z,34.50
2017-10-14T09:20:23.546Z,34.60
2017-10-14T09:22:52.841Z,35.40
2017-10-14T09:25:22.109Z,35.80
2017-10-14T09:27:51.446Z,36.30
2017-10-14T09:30:21.153Z,36.20
2017-10-14T09:32:50.422Z,36.30
2017-10-14T09:35:20.482Z,36.30
2017-10-14T09:37:49.846Z,36.30
2017-10-14T09:40:19.931Z,35.30
2017-10-14T09:42:49.365Z,35.30
2017-10-14T09:45:18.618Z,34.80
2017-10-14T09:47:48.005Z,34.70
2017-10-14T09:50:17.278Z,34.50
2017-10-14T09:52:46.546Z,34.70
2017-10-14T09:55:16.059Z,35.10
2017-10-14T09:57:45.310Z,35.20
2017-10-14T10:00:14.704Z,34.90
2017-10-14T10:02:43.958Z,34.60
2017-10-14T10:05:13.358Z,34.30
2017-10-14T10:07:42.686Z,33.80
2017-10-14T10:10:12.175Z,33.10
2017-10-14T10:12:41.516Z,32.70
2017-10-14T10:15:11.714Z,33.30
2017-10-14T10:17:40.959Z,33.30
2017-10-14T10:20:10.306Z,32.60
2017-10-14T10:22:39.649Z,32.40
2017-10-14T10:25:09.031Z,32.20
2017-10-14T10:27:39.146Z,32.70
2017-10-14T10:30:08.468Z,32.70
2017-10-14T10:32:37.699Z,32.30
2017-10-14T10:35:06.945Z,32.00
2017-10-14T10:37:36.277Z,32.00
2017-10-14T10:40:05.523Z,32.00
2017-10-14T10:42:34.818Z,31.40
2017-10-14T10:45:04.257Z,31.00
2017-10-14T10:47:34.422Z,30.60
2017-10-14T10:50:03.702Z,30.60
2017-10-14T10:52:32.991Z,30.60
2017-10-14T10:55:03.421Z,30.30
2017-10-14T10:57:32.670Z,30.30
2017-10-14T11:00:01.939Z,30.80
2017-10-14T11:02:31.378Z,31.20
2017-10-14T11:05:00.677Z,31.90
2017-10-14T11:07:30.224Z,31.80
2017-10-14T11:09:59.471Z,32.30
2017-10-14T11:12:28.757Z,32.20
2017-10-14T11:14:58.102Z,32.50
2017-10-14T11:17:27.358Z,32.60
2017-10-14T11:19:56.704Z,32.50
2017-10-14T11:22:26.031Z,32.40
2017-10-14T11:24:55.551Z,31.80
2017-10-14T11:27:25.731Z,31.30
2017-10-14T11:29:55.061Z,31.20
2017-10-14T11:32:25.128Z,31.40
2017-10-14T11:34:54.426Z,31.40
2017-10-14T11:37:23.681Z,31.30
2017-10-14T11:39:52.962Z,31.20
2017-10-14T11:42:22.187Z,31.00
2017-10-14T11:44:51.511Z,31.00
2017-10-14T11:47:20.762Z,31.00
2017-10-14T11:49:50.055Z,30.70
2017-10-14T11:52:19.330Z,30.20
2017-10-14T11:54:48.814Z,30.70
2017-10-14T11:57:18.889Z,30.80
2017-10-14T11:59:48.162Z,30.70
2017-10-14T12:02:17.426Z,30.60
2017-10-14T12:04:46.829Z,30.30
2017-10-14T12:07:16.921Z,28.90
2017-10-14T12:09:46.258Z,28.80
2017-10-14T12:12:16.311Z,27.10
2017-10-14T12:14:45.591Z,27.10
2017-10-14T12:17:14.966Z,26.40
2017-10-14T12:19:45.097Z,25.60
2017-10-14T12:22:15.129Z,25.80
2017-10-14T12:24:45.207Z,25.50
2017-10-14T12:27:14.443Z,25.50
2017-10-14T12:29:43.712Z,25.40
2017-10-14T12:32:13.071Z,25.20
2017-10-14T12:34:42.341Z,25.50
2017-10-14T12:37:11.846Z,26.00
2017-10-14T12:39:41.858Z,26.00
2017-10-14T12:42:11.897Z,25.80
2017-10-14T12:44:41.151Z,25.80
2017-10-14T12:47:10.498Z,25.50
2017-10-14T12:49:39.767Z,25.40
2017-10-14T12:52:09.080Z,25.10
2017-10-14T12:54:39.129Z,23.90
2017-10-14T12:57:08.378Z,23.90
2017-10-14T12:59:37.630Z,23.60
2017-10-14T13:02:06.891Z,23.30
2017-10-14T13:04:36.970Z,23.00
2017-10-14T13:07:06.252Z,22.90
2017-10-14T13:09:35.672Z,23.00
2017-10-14T13:12:04.968Z,23.00
2017-10-14T13:14:34.215Z,23.00
2017-10-14T13:17:03.568Z,23.00
2017-10-14T13:19:32.836Z,23.00
2017-10-14T13:22:02.858Z,22.80
2017-10-14T13:24:32.901Z,22.80
2017-10-14T13:27:02.167Z,22.80
2017-10-14T13:29:32.416Z,22.90
2017-10-14T13:32:01.805Z,22.80
2017-10-14T13:34:31.849Z,22.90
2017-10-14T13:37:01.118Z,22.90
2017-10-14T13:39:30.406Z,22.90
2017-10-14T13:42:00.526Z,22.90
2017-10-14T13:44:30.552Z,22.90
2017-10-14T13:47:00.603Z,22.90
2017-10-14T13:49:29.952Z,22.90
2017-10-14T13:51:59.218Z,22.90
2017-10-14T13:54:28.594Z,22.90
2017-10-14T13:56:58.664Z,22.90
2017-10-14T13:59:27.925Z,22.90
2017-10-14T14:01:57.291Z,22.90
2017-10-14T14:04:26.610Z,22.70
2017-10-14T14:06:56.636Z,22.70
2017-10-14T14:09:26.718Z,22.70
2017-10-14T14:11:55.994Z,22.70
2017-10-14T14:14:25.272Z,22.70
2017-10-14T14:16:54.554Z,22.70
2017-10-14T14:19:24.575Z,22.50
2017-10-14T14:21:54.619Z,22.40
2017-10-14T14:24:23.893Z,22.40
2017-10-14T14:26:54.016Z,22.10
2017-10-14T14:29:24.081Z,21.90
2017-10-14T14:31:53.350Z,21.90
2017-10-14T14:34:22.619Z,21.80
2017-10-14T14:36:51.906Z,21.80
2017-10-14T14:39:21.172Z,21.70
2017-10-14T14:41:50.454Z,21.60
2017-10-14T14:44:19.703Z,21.50
2017-10-14T14:46:49.099Z,21.30
2017-10-14T14:49:18.380Z,21.20
2017-10-14T14:51:47.702Z,20.90
2017-10-14T14:54:16.969Z,20.60
2017-10-14T14:56:46.234Z,20.40
2017-10-14T14:59:16.273Z,19.90
2017-10-14T15:01:45.546Z,19.90
2017-10-14T15:04:14.804Z,19.80
2017-10-14T15:06:44.075Z,19.60
2017-10-14T15:09:13.562Z,19.40
2017-10-14T15:11:43.596Z,19.00
2017-10-14T15:14:12.908Z,19.00
2017-10-14T15:16:42.909Z,18.80
2017-10-14T15:19:12.947Z,18.60
2017-10-14T15:21:42.190Z,18.60
2017-10-14T15:24:11.442Z,18.50
2017-10-14T15:26:40.747Z,18.40
2017-10-14T15:29:10.821Z,18.00
2017-10-14T15:31:40.119Z,18.00
2017-10-14T15:34:09.379Z,17.70
2017-10-14T15:36:38.653Z,17.60
2017-10-14T15:39:07.914Z,17.50
2017-10-14T15:41:37.194Z,17.40
2017-10-14T15:44:06.620Z,17.40
2017-10-14T15:46:36.123Z,17.30
2017-10-14T15:49:05.408Z,17.20
2017-10-14T15:51:34.674Z,17.10
2017-10-14T15:54:04.781Z,17.00
2017-10-14T15:56:34.161Z,17.00
2017-10-14T15:59:03.526Z,16.90
2017-10-14T16:01:33.515Z,16.90
2017-10-14T16:04:02.809Z,16.80
2017-10-14T16:06:32.080Z,16.90
2017-10-14T16:09:01.348Z,16.90
2017-10-14T16:11:30.628Z,16.90
2017-10-14T16:14:00.644Z,16.80
2017-10-14T16:16:29.898Z,16.80
2017-10-14T16:18:59.224Z,16.80
2017-10-14T16:21:28.498Z,16.80
2017-10-14T16:23:57.774Z,16.60
2017-10-14T16:26:27.071Z,16.60
2017-10-14T16:28:56.348Z,16.60
2017-10-14T16:31:25.632Z,16.50
2017-10-14T16:33:55.801Z,16.40
2017-10-14T16:36:25.176Z,16.40
2017-10-14T16:38:54.518Z,16.30
2017-10-14T16:41:23.796Z,16.20
2017-10-14T16:43:53.074Z,16.20
2017-10-14T16:46:22.337Z,16.10
2017-10-14T16:48:51.640Z,16.10
2017-10-14T16:51:20.908Z,16.00
2017-10-14T16:53:50.171Z,15.90
2017-10-14T16:56:19.450Z,15.90
2017-10-14T16:58:48.745Z,15.80
2017-10-14T17:01:18.191Z,15.70
2017-10-14T17:03:47.677Z,15.70
2017-10-14T17:06:17.704Z,15.50
2017-10-14T17:08:46.990Z,15.50
2017-10-14T17:11:16.270Z,15.40
2017-10-14T17:13:45.573Z,15.30
2017-10-14T17:16:14.837Z,15.30
2017-10-14T17:18:44.098Z,15.20
2017-10-14T17:21:14.146Z,15.20
2017-10-14T17:23:43.397Z,15.10
2017-10-14T17:26:12.672Z,15.10
2017-10-14T17:28:41.922Z,15.10
2017-10-14T17:31:12.118Z,15.00
2017-10-14T17:33:41.390Z,15.00
2017-10-14T17:36:10.681Z,15.00
2017-10-14T17:38:39.931Z,14.90
2017-10-14T17:41:09.278Z,14.80
2017-10-14T17:43:38.568Z,14.70
2017-10-14T17:46:07.823Z,14.70
2017-10-14T17:48:37.157Z,14.60
2017-10-14T17:51:07.241Z,14.60
2017-10-14T17:53:36.516Z,14.60
2017-10-14T17:56:05.804Z,14.60
2017-10-14T17:58:35.062Z,14.50
2017-10-14T18:01:04.337Z,14.50
2017-10-14T18:03:33.615Z,14.40
2017-10-14T18:06:03.575Z,14.40
2017-10-14T18:08:32.879Z,14.30
2017-10-14T18:11:02.144Z,14.30
2017-10-14T18:13:31.434Z,14.20
2017-10-14T18:16:00.723Z,14.20
2017-10-14T18:18:29.981Z,14.10
2017-10-14T18:20:59.483Z,14.10
2017-10-14T18:23:28.774Z,14.00
2017-10-14T18:25:58.321Z,14.00
2017-10-14T18:28:28.343Z,13.90
2017-10-14T18:30:57.650Z,13.90
2017-10-14T18:33:26.937Z,13.90
2017-10-14T18:35:56.947Z,13.80
2017-10-14T18:38:26.212Z,13.80
2017-10-14T18:40:55.585Z,13.80
2017-10-14T18:43:24.869Z,13.80
2017-10-14T18:45:54.299Z,13.80
2017-10-14T18:48:23.823Z,13.80
2017-10-14T18:50:53.196Z,13.70
2017-10-14T18:53:22.579Z,13.60
2017-10-14T18:55:51.814Z,13.70
2017-10-14T18:58:21.090Z,13.60
2017-10-14T19:00:51.139Z,13.60
2017-10-14T19:03:20.394Z,13.60
2017-10-14T19:05:49.651Z,13.60
2017-10-14T19:08:18.912Z,13.50
2017-10-14T19:10:48.202Z,13.50
2017-10-14T19:13:18.368Z,13.50
2017-10-14T19:15:47.654Z,13.50
2017-10-14T19:18:16.944Z,13.40
2017-10-14T19:20:47.058Z,13.50
2017-10-14T19:23:17.087Z,13.40
2017-10-14T19:25:46.399Z,13.50
2017-10-14T19:28:15.619Z,13.40
2017-10-14T19:30:44.874Z,13.40
2017-10-14T19:33:15.072Z,13.40
2017-10-14T19:35:44.343Z,13.30
2017-10-14T19:38:13.591Z,13.40
2017-10-14T19:40:43.831Z,13.30
2017-10-14T19:43:13.088Z,13.30
2017-10-14T19:45:42.406Z,13.30
2017-10-14T19:48:11.670Z,13.20
2017-10-14T19:50:41.228Z,13.20
2017-10-14T19:53:10.825Z,13.20
2017-10-14T19:55:40.857Z,13.20
2017-10-14T19:58:10.250Z,13.10
2017-10-14T20:00:39.538Z,13.20
2017-10-14T20:03:09.043Z,13.20
2017-10-14T20:05:38.285Z,13.20
2017-10-14T20:08:07.603Z,13.10
2017-10-14T20:10:37.598Z,13.10
2017-10-14T20:13:06.877Z,13.10
2017-10-14T20:15:36.931Z,13.10
2017-10-14T20:18:06.443Z,13.00
2017-10-14T20:20:35.838Z,13.00
2017-10-14T20:23:05.091Z,13.00
2017-10-14T20:25:34.428Z,13.00
2017-10-14T20:28:03.687Z,12.90
2017-10-14T20:30:32.943Z,12.90
2017-10-14T20:33:02.208Z,12.90
2017-10-14T20:35:31.487Z,12.90
2017-10-14T20:38:00.762Z,12.90
2017-10-14T20:40:30.036Z,12.90
2017-10-14T20:42:59.531Z,12.90
2017-10-14T20:45:29.583Z,12.80
2017-10-14T20:47:58.895Z,12.80
2017-10-14T20:50:28.359Z,12.80
2017-10-14T20:52:57.634Z,12.90
2017-10-14T20:55:26.988Z,12.90
2017-10-14T20:57:56.254Z,12.80
2017-10-14T21:00:25.531Z,12.80
2017-10-14T21:02:54.792Z,12.80
2017-10-14T21:05:24.058Z,12.80
2017-10-14T21:07:54.092Z,12.80
2017-10-14T21:10:23.366Z,12.80
2017-10-14T21:12:52.647Z,12.80
2017-10-14T21:15:21.893Z,12.80
2017-10-14T21:17:51.994Z,12.70
2017-10-14T21:20:22.106Z,12.70
2017-10-14T21:22:51.418Z,12.70
2017-10-14T21:25:21.606Z,12.70
2017-10-14T21:27:51.653Z,12.60
2017-10-14T21:30:21.681Z,12.60
2017-10-14T21:32:50.994Z,12.60
2017-10-14T21:35:20.530Z,12.60
2017-10-14T21:37:49.891Z,12.70
2017-10-14T21:40:19.940Z,12.60
2017-10-14T21:42:49.201Z,12.50
2017-10-14T21:45:18.490Z,12.60
2017-10-14T21:47:49.253Z,12.60
2017-10-14T21:50:18.529Z,12.60
2017-10-14T21:52:47.928Z,12.60
2017-10-14T21:55:18.006Z,12.50
2017-10-14T21:57:47.257Z,12.50
2017-10-14T22:00:18.104Z,12.50
2017-10-14T22:02:47.355Z,12.50
2017-10-14T22:05:16.625Z,12.50
2017-10-14T22:07:45.876Z,12.50
2017-10-14T22:10:15.154Z,12.40
2017-10-14T22:12:44.434Z,12.40
2017-10-14T22:15:14.282Z,12.50
2017-10-14T22:17:43.563Z,12.50
2017-10-14T22:20:12.947Z,12.40
2017-10-14T22:22:42.992Z,12.40
2017-10-14T22:25:12.346Z,12.40
2017-10-14T22:27:41.660Z,12.40
2017-10-14T22:30:11.775Z,12.40
2017-10-14T22:32:41.894Z,12.30
2017-10-14T22:35:12.015Z,12.30
2017-10-14T22:37:42.052Z,12.30
2017-10-14T22:40:11.339Z,12.30
2017-10-14T22:42:40.700Z,12.30
2017-10-14T22:45:10.885Z,12.30
2017-10-14T22:47:40.890Z,12.20
2017-10-14T22:50:10.177Z,12.20
2017-10-14T22:52:39.450Z,12.20
2017-10-14T22:55:08.706Z,12.20
2017-10-14T22:57:37.971Z,12.20
2017-10-14T23:00:07.221Z,12.20
2017-10-14T23:02:37.043Z,12.10
2017-10-14T23:05:06.398Z,12.10
2017-10-14T23:07:35.666Z,12.10
2017-10-14T23:10:05.174Z,12.10
2017-10-14T23:12:34.455Z,12.10
2017-10-14T23:15:03.703Z,12.10
2017-10-14T23:17:33.054Z,12.10
2017-10-14T23:20:02.327Z,12.10
2017-10-14T23:22:31.594Z,12.10
2017-10-14T23:25:02.057Z,12.10
2017-10-14T23:27:31.465Z,12.10
2017-10-14T23:30:00.929Z,12.10
2017-10-14T23:32:30.182Z,12.10
2017-10-14T23:34:59.574Z,12.10
2017-10-14T23:37:28.880Z,12.10
2017-10-14T23:39:58.345Z,12.00
2017-10-14T23:42:28.497Z,12.00
2017-10-14T23:44:57.758Z,12.00
2017-10-14T23:47:27.028Z,12.00
2017-10-14T23:49:56.374Z,12.00
2017-10-14T23:52:25.617Z,12.00
2017-10-14T23:54:54.867Z,12.00
2017-10-14T23:57:24.139Z,11.90
2017-10-14T23:59:53.394Z,11.90
